Time;durP1;ratioP1;P1;durP2;ratioP2;P2;SDS_P1;SDS_P2;PMS_P1;PMS_P2;Temp;Humidity;BMP_temperature;BMP_pressure;BME280_temperature;BME280_humidity;BME280_pressure;Samples;Min_cycle;Max_cycle;Signal;HPM_P1;HPM_P2
2022/10/29 00:00:56;;;;;;;10.00;5.10;;;;;;;13.22;51.45;101711.47;107256;1279;21956;-64
2022/10/29 00:03:22;;;;;;;8.20;5.30;;;;;;;13.21;51.46;101710.41;107277;1291;21965;-64
2022/10/29 00:06:06;;;;;;;9.40;5.70;;;;;;;13.19;51.35;101710.95;107345;1293;21954;-63
2022/10/29 00:08:35;;;;;;;9.70;5.70;;;;;;;13.16;51.24;101709.36;106552;1291;1002371;-63
2022/10/29 00:11:18;;;;;;;9.90;6.10;;;;;;;13.15;51.40;101707.77;107328;1277;21954;-63
2022/10/29 00:13:45;;;;;;;9.60;5.90;;;;;;;13.11;51.29;101706.91;107292;1292;21970;-64
2022/10/29 00:16:13;;;;;;;10.20;6.00;;;;;;;13.06;51.41;101706.38;107277;1292;21948;-64
2022/10/29 00:18:41;;;;;;;7.60;5.30;;;;;;;13.03;51.33;101699.17;106654;1291;1002621;-63
2022/10/29 00:21:09;;;;;;;11.50;5.70;;;;;;;13.00;51.41;101697.23;107277;1293;21996;-64
2022/10/29 00:23:35;;;;;;;9.00;5.80;;;;;;;12.98;51.49;101699.00;107424;1289;22000;-63
2022/10/29 00:26:02;;;;;;;10.50;6.40;;;;;;;12.98;51.52;101699.35;107490;1292;21951;-62
2022/10/29 00:28:28;;;;;;;10.30;6.20;;;;;;;12.98;51.41;101698.64;107332;1291;21966;-62
2022/10/29 00:30:54;;;;;;;11.60;6.70;;;;;;;12.96;51.46;101698.65;107308;1291;21998;-64
2022/10/29 00:33:20;;;;;;;7.40;5.10;;;;;;;12.94;51.55;101693.89;107345;1291;21950;-65
2022/10/29 00:36:05;;;;;;;11.10;6.20;;;;;;;12.92;51.64;101694.95;107414;1291;21954;-64
2022/10/29 00:38:32;;;;;;;12.60;6.00;;;;;;;12.92;51.61;101691.25;107955;1292;22822;-65
2022/10/29 00:40:58;;;;;;;10.20;6.30;;;;;;;12.93;51.60;101687.55;107251;1291;21960;-63
2022/10/29 00:43:24;;;;;;;8.20;6.00;;;;;;;12.92;51.44;101685.95;107315;1292;21951;-63
2022/10/29 00:46:03;;;;;;;10.80;6.50;;;;;;;12.89;51.46;101683.31;107220;1293;21953;-64
2022/10/29 00:48:31;;;;;;;10.10;6.30;;;;;;;12.74;51.82;101687.73;107280;1279;21995;-65
2022/10/29 00:50:58;;;;;;;10.30;6.80;;;;;;;12.72;51.99;101692.48;107321;1292;21951;-64
2022/10/29 00:53:26;;;;;;;12.30;6.80;;;;;;;12.70;51.89;101686.85;107165;1293;21947;-63
2022/10/29 00:55:52;;;;;;;11.00;6.40;;;;;;;12.68;52.12;101681.58;107287;1291;22124;-63
2022/10/29 00:58:18;;;;;;;10.80;6.50;;;;;;;12.63;52.21;101686.16;107269;1292;21951;-64
2022/10/29 01:00:44;;;;;;;9.40;6.30;;;;;;;12.65;52.14;101684.74;107146;1293;21974;-64
2022/10/29 01:03:10;;;;;;;10.40;7.20;;;;;;;12.69;52.08;101684.21;107066;1293;21958;-62
2022/10/29 01:05:36;;;;;;;13.00;8.00;;;;;;;12.69;51.99;101681.93;107313;1291;21960;-62
2022/10/29 01:08:03;;;;;;;11.50;7.90;;;;;;;12.68;52.03;101681.76;107275;1293;21962;-63
2022/10/29 01:10:55;;;;;;;15.40;8.00;;;;;;;12.60;52.24;101681.05;107421;1291;21955;-64
2022/10/29 01:13:32;;;;;;;11.70;6.90;;;;;;;12.55;52.29;101677.35;107246;1292;21947;-63
2022/10/29 01:16:08;;;;;;;;;;;;;;;12.54;52.31;101674.36;107288;1291;21937;-64
2022/10/29 01:18:57;;;;;;;9.50;6.60;;;;;;;12.57;52.50;101670.30;107294;1292;21960;-63
2022/10/29 01:21:37;;;;;;;11.10;7.40;;;;;;;12.61;52.58;101667.83;107243;1293;22008;-63
2022/10/29 01:24:58;;;;;;;13.80;8.60;;;;;;;12.61;52.68;101667.48;107316;1293;21954;-64
2022/10/29 01:27:25;;;;;;;12.50;8.80;;;;;;;12.60;52.76;101661.67;106817;1296;21967;-64
2022/10/29 01:29:53;;;;;;;11.60;8.20;;;;;;;12.58;52.70;101663.97;106565;1292;1002527;-63
2022/10/29 01:32:52;;;;;;;11.20;7.50;;;;;;;12.56;52.55;101663.97;107288;1291;21992;-64
2022/10/29 01:35:33;;;;;;;10.30;7.10;;;;;;;12.58;52.69;101661.51;107223;1291;21992;-65
2022/10/29 01:38:23;;;;;;;9.60;7.10;;;;;;;12.58;52.75;101656.56;107255;1293;21956;-64
2022/10/29 01:41:09;;;;;;;11.30;8.30;;;;;;;12.62;52.92;101656.73;107224;1288;21957;-64
2022/10/29 01:44:06;;;;;;;12.40;7.80;;;;;;;12.65;52.90;101659.02;107127;1293;21948;-63
2022/10/29 01:46:41;;;;;;;12.20;8.10;;;;;;;12.65;52.75;101661.50;107227;1290;21993;-64
2022/10/29 01:49:11;;;;;;;11.50;8.00;;;;;;;12.67;52.54;101661.50;107180;1291;23127;-65
2022/10/29 01:51:37;;;;;;;10.10;8.20;;;;;;;12.71;52.63;101657.09;106570;1293;1003179;-64
2022/10/29 01:54:06;;;;;;;10.10;7.00;;;;;;;12.74;52.59;101655.33;107136;1293;21980;-64
2022/10/29 01:56:32;;;;;;;10.80;7.80;;;;;;;12.74;52.67;101650.58;107226;1293;21946;-64
2022/10/29 01:58:58;;;;;;;13.70;9.20;;;;;;;12.74;52.68;101647.07;107265;1291;21956;-65
2022/10/29 02:01:58;;;;;;;13.10;8.30;;;;;;;12.74;52.80;101646.87;107168;1293;21947;-64
2022/10/29 02:04:41;;;;;;;13.50;10.00;;;;;;;12.77;52.79;101645.83;107461;1291;21933;-64
2022/10/29 02:07:45;;;;;;;13.00;9.00;;;;;;;12.80;52.83;101640.89;107255;1291;21960;-63
2022/10/29 02:10:29;;;;;;;12.10;8.90;;;;;;;12.86;52.93;101639.11;107260;1293;21955;-63
2022/10/29 02:12:55;;;;;;;13.50;8.30;;;;;;;12.91;53.14;101640.34;107248;1293;21959;-63
2022/10/29 02:15:28;;;;;;;10.50;8.70;;;;;;;12.98;53.08;101639.44;107033;1292;21956;-63
2022/10/29 02:17:59;;;;;;;11.00;8.70;;;;;;;13.01;53.08;101635.58;107256;1293;23478;-63
2022/10/29 02:20:27;;;;;;;15.00;10.20;;;;;;;13.04;53.16;101634.84;107266;1293;22847;-65
2022/10/29 02:22:54;;;;;;;11.60;8.80;;;;;;;13.10;53.17;101637.30;107246;1293;21977;-63
2022/10/29 02:25:19;;;;;;;12.70;8.80;;;;;;;13.15;53.04;101636.23;107087;1293;21968;-65
2022/10/29 02:27:45;;;;;;;11.40;8.50;;;;;;;13.22;53.06;101633.04;107271;1277;21950;-64
2022/10/29 02:30:11;;;;;;;11.50;7.90;;;;;;;13.26;53.02;101637.26;107277;1291;22072;-63
2022/10/29 02:32:37;;;;;;;12.40;8.90;;;;;;;13.30;53.01;101635.30;107315;1289;21950;-63
2022/10/29 02:35:04;;;;;;;14.60;10.30;;;;;;;13.33;52.90;101638.30;107318;1292;21959;-63
2022/10/29 02:37:30;;;;;;;11.70;9.90;;;;;;;13.36;52.94;101646.55;107334;1291;21945;-64
2022/10/29 02:39:56;;;;;;;10.90;8.70;;;;;;;13.38;52.97;101646.91;107261;1291;21949;-63
2022/10/29 02:42:22;;;;;;;11.80;9.30;;;;;;;13.41;52.96;101635.45;107306;1292;21965;-65
2022/10/29 02:44:48;;;;;;;11.50;9.30;;;;;;;13.41;52.95;101634.05;107324;1291;21926;-64
2022/10/29 02:47:14;;;;;;;13.40;8.80;;;;;;;13.43;52.86;101638.11;107340;1292;23709;-63
2022/10/29 02:49:40;;;;;;;14.70;10.70;;;;;;;13.46;53.12;101635.98;107356;1291;21956;-65
2022/10/29 02:52:06;;;;;;;13.50;10.50;;;;;;;13.47;52.83;101631.02;107261;1293;21957;-64
2022/10/29 02:54:32;;;;;;;13.30;10.00;;;;;;;13.45;52.97;101627.34;107217;1292;21954;-64
2022/10/29 02:56:58;;;;;;;12.80;9.80;;;;;;;13.48;52.73;101625.73;107176;1289;21951;-63
2022/10/29 02:59:24;;;;;;;13.10;9.50;;;;;;;13.55;52.56;101627.11;107209;1292;21993;-64
2022/10/29 03:01:49;;;;;;;12.60;9.90;;;;;;;13.47;52.85;101626.80;107253;1278;21946;-67
2022/10/29 03:04:15;;;;;;;13.80;9.80;;;;;;;13.47;52.89;101628.21;107273;1291;21958;-62
2022/10/29 03:06:41;;;;;;;15.70;11.00;;;;;;;13.49;52.83;101631.89;107227;1291;21955;-62
2022/10/29 03:09:07;;;;;;;14.50;10.90;;;;;;;13.61;52.66;101631.67;107251;1291;21955;-67
2022/10/29 03:11:33;;;;;;;16.30;11.50;;;;;;;13.64;52.51;101635.20;107206;1291;21946;-62
2022/10/29 03:14:01;;;;;;;11.90;9.90;;;;;;;13.63;52.43;101643.30;107271;1291;21946;-66
2022/10/29 03:16:27;;;;;;;13.30;9.70;;;;;;;13.61;52.41;101639.61;107285;1291;21949;-67
2022/10/29 03:18:53;;;;;;;12.30;9.30;;;;;;;13.60;52.35;101638.38;107265;1293;21940;-67
2022/10/29 03:21:19;;;;;;;12.70;9.00;;;;;;;13.59;52.47;101634.15;107342;1292;21971;-62
2022/10/29 03:23:46;;;;;;;13.90;11.10;;;;;;;13.63;52.22;101628.85;107286;1291;21971;-62
2022/10/29 03:26:12;;;;;;;13.40;10.30;;;;;;;13.59;52.45;101620.23;107225;1291;22002;-61
2022/10/29 03:28:38;;;;;;;13.60;10.90;;;;;;;13.55;52.41;101619.89;107253;1292;22002;-66
2022/10/29 03:31:04;;;;;;;17.20;11.40;;;;;;;13.50;52.60;101619.20;107373;1283;21956;-64
2022/10/29 03:33:31;;;;;;;13.90;10.30;;;;;;;13.46;52.67;101622.23;107309;1291;21960;-63
2022/10/29 03:36:00;;;;;;;13.50;10.00;;;;;;;13.45;52.68;101622.59;107329;1291;21961;-64
2022/10/29 03:38:27;;;;;;;13.00;9.60;;;;;;;13.42;52.90;101620.66;107149;1291;21962;-64
2022/10/29 03:40:53;;;;;;;14.50;10.30;;;;;;;13.42;52.84;101619.23;107312;1291;21965;-63
2022/10/29 03:43:19;;;;;;;16.20;10.60;;;;;;;13.40;52.81;101612.17;107302;1288;22068;-65
2022/10/29 03:45:50;;;;;;;15.00;11.30;;;;;;;13.35;52.90;101614.83;107286;1283;21979;-63
2022/10/29 03:48:17;;;;;;;12.30;9.80;;;;;;;13.32;52.91;101615.19;107337;1291;21971;-63
2022/10/29 03:50:43;;;;;;;13.20;9.80;;;;;;;13.28;53.09;101617.66;107295;1291;21944;-63
2022/10/29 03:53:09;;;;;;;15.10;10.00;;;;;;;13.25;53.13;101617.52;107268;1291;21939;-63
2022/10/29 03:55:35;;;;;;;13.40;10.60;;;;;;;13.23;53.05;101614.01;107096;1293;21959;-63
2022/10/29 03:58:01;;;;;;;13.60;10.50;;;;;;;13.22;53.06;101605.54;107284;1291;21935;-63
2022/10/29 04:00:27;;;;;;;14.10;10.40;;;;;;;13.17;53.31;101600.80;107315;1291;21943;-64
2022/10/29 04:02:54;;;;;;;17.40;11.00;;;;;;;13.18;53.43;101595.67;107243;1293;21948;-63
2022/10/29 04:05:20;;;;;;;12.10;9.50;;;;;;;13.18;53.42;101590.39;107298;1292;21959;-64
2022/10/29 04:07:46;;;;;;;13.50;9.70;;;;;;;13.13;53.60;101590.05;107040;1293;21951;-63
2022/10/29 04:10:11;;;;;;;13.70;9.20;;;;;;;13.09;53.59;101592.54;107263;1291;21989;-63
2022/10/29 04:12:45;;;;;;;13.50;9.60;;;;;;;13.04;53.70;101593.61;107280;1291;21966;-63
2022/10/29 04:15:11;;;;;;;13.80;10.40;;;;;;;13.02;53.68;101592.73;107284;1291;22422;-63
2022/10/29 04:17:37;;;;;;;14.00;10.60;;;;;;;13.04;53.63;101587.80;107126;1293;21947;-63
2022/10/29 04:20:05;;;;;;;16.70;10.40;;;;;;;13.04;53.73;101586.91;107263;1289;21968;-63
2022/10/29 04:22:31;;;;;;;15.90;10.40;;;;;;;13.01;53.69;101588.52;107286;1291;21945;-63
2022/10/29 04:24:59;;;;;;;12.60;9.30;;;;;;;12.97;53.77;101589.23;107252;1291;21951;-63
2022/10/29 04:27:26;;;;;;;15.00;10.70;;;;;;;12.92;53.75;101593.66;107265;1292;21968;-63
2022/10/29 04:29:52;;;;;;;19.50;12.60;;;;;;;12.90;53.66;101594.00;107312;1291;21979;-63
2022/10/29 04:32:19;;;;;;;119.00;56.90;;;;;;;12.90;53.78;101593.30;107329;1291;21954;-64
2022/10/29 04:34:48;;;;;;;162.40;68.30;;;;;;;12.88;53.88;101595.77;106555;1292;1003100;-63
2022/10/29 04:37:14;;;;;;;210.80;110.40;;;;;;;12.86;53.87;101597.72;107283;1292;21992;-63
2022/10/29 04:39:39;;;;;;;270.60;159.40;;;;;;;12.85;53.85;101593.13;107273;1291;21960;-63
2022/10/29 04:42:06;;;;;;;179.10;124.30;;;;;;;12.84;53.81;101590.13;107284;1291;21951;-66
2022/10/29 04:44:32;;;;;;;254.00;109.90;;;;;;;12.86;54.05;101589.60;107252;1291;22018;-64
2022/10/29 04:46:58;;;;;;;125.60;52.60;;;;;;;12.91;54.06;101589.26;107274;1290;21947;-64
2022/10/29 04:49:24;;;;;;;120.60;49.30;;;;;;;12.99;54.33;101593.46;107253;1291;21962;-65
2022/10/29 04:51:51;;;;;;;165.20;90.60;;;;;;;13.06;54.30;101592.55;107255;1291;23283;-66
2022/10/29 04:54:17;;;;;;;148.30;106.00;;;;;;;13.12;54.35;101594.83;107024;1291;23625;-66
2022/10/29 04:56:43;;;;;;;245.70;179.40;;;;;;;13.20;54.14;101592.34;107113;1278;21960;-66
2022/10/29 04:59:09;;;;;;;310.10;200.40;;;;;;;13.26;54.20;101590.53;107283;1287;21999;-66
2022/10/29 05:01:36;;;;;;;421.70;284.30;;;;;;;13.34;54.02;101590.69;107270;1293;21962;-66
2022/10/29 05:04:02;;;;;;;447.20;168.70;;;;;;;13.39;54.06;101589.95;107126;1293;21958;-66
2022/10/29 05:06:29;;;;;;;240.50;70.60;;;;;;;13.42;54.10;101593.31;107229;1293;21950;-66
2022/10/29 05:08:56;;;;;;;195.90;63.40;;;;;;;13.46;54.11;101598.42;107277;1292;21958;-66
2022/10/29 05:11:22;;;;;;;122.40;58.50;;;;;;;13.50;54.04;101603.33;107262;1291;21960;-65
2022/10/29 05:13:49;;;;;;;97.90;49.40;;;;;;;13.54;54.08;101603.84;107335;1291;21959;-65
2022/10/29 05:16:15;;;;;;;65.70;34.30;;;;;;;13.59;54.15;101604.54;107174;1290;21993;-67
2022/10/29 05:18:42;;;;;;;51.80;27.50;;;;;;;13.65;54.09;101604.14;108178;1290;21950;-66
2022/10/29 05:21:08;;;;;;;42.30;23.90;;;;;;;13.68;54.05;101603.95;107235;1292;22050;-66
2022/10/29 05:23:35;;;;;;;43.30;23.30;;;;;;;13.72;53.99;101609.21;107196;1293;21960;-66
2022/10/29 05:26:01;;;;;;;46.60;25.20;;;;;;;13.77;54.06;101610.60;107233;1288;21957;-66
2022/10/29 05:28:27;;;;;;;55.10;27.60;;;;;;;13.82;54.10;101607.23;107208;1291;23628;-64
2022/10/29 05:30:54;;;;;;;43.50;22.70;;;;;;;13.85;54.19;101609.14;107311;1292;21951;-65
2022/10/29 05:33:22;;;;;;;37.80;20.00;;;;;;;13.90;54.26;101604.70;107201;1292;21995;-65
2022/10/29 05:35:48;;;;;;;39.70;21.60;;;;;;;13.94;54.53;101598.31;107271;1291;21946;-65
2022/10/29 05:38:14;;;;;;;61.10;30.70;;;;;;;13.93;54.35;101600.25;107380;1291;21954;-66
2022/10/29 05:40:43;;;;;;;69.40;34.60;;;;;;;13.96;54.34;101605.54;107240;1291;22008;-65
2022/10/29 05:43:10;;;;;;;52.70;29.10;;;;;;;14.00;54.42;101604.10;107326;1292;21958;-66
2022/10/29 05:45:36;;;;;;;49.40;27.10;;;;;;;14.02;54.83;101608.15;107278;1288;21970;-65
2022/10/29 05:48:03;;;;;;;50.90;24.50;;;;;;;14.08;54.84;101612.17;107340;1290;21957;-65
2022/10/29 05:50:29;;;;;;;61.20;25.90;;;;;;;14.15;54.77;101612.64;107271;1292;21961;-66
2022/10/29 05:52:56;;;;;;;60.30;26.50;;;;;;;14.23;54.84;101614.35;107284;1293;21960;-66
2022/10/29 05:55:22;;;;;;;65.00;27.60;;;;;;;14.31;54.90;101619.23;106984;1293;21959;-66
2022/10/29 05:57:49;;;;;;;62.40;26.00;;;;;;;14.40;54.92;101622.50;107124;1293;21951;-66
2022/10/29 06:00:15;;;;;;;54.40;24.20;;;;;;;14.51;54.89;101620.13;107154;1285;21958;-66
2022/10/29 06:02:42;;;;;;;72.20;27.50;;;;;;;14.62;54.78;101621.42;107238;1279;21969;-67
2022/10/29 06:05:09;;;;;;;63.20;25.10;;;;;;;14.72;54.83;101626.15;107352;1291;21950;-66
2022/10/29 06:07:36;;;;;;;60.60;24.80;;;;;;;14.76;54.95;101627.00;107184;1291;21953;-67
2022/10/29 06:10:02;;;;;;;72.80;26.90;;;;;;;14.85;54.86;101626.36;107292;1291;23604;-66
2022/10/29 06:12:31;;;;;;;67.70;27.10;;;;;;;14.95;54.94;101622.20;107310;1291;21961;-67
2022/10/29 06:14:58;;;;;;;31.90;16.20;;;;;;;15.03;54.95;101621.59;107328;1291;21964;-67
2022/10/29 06:17:25;;;;;;;30.70;16.00;;;;;;;15.12;54.98;101621.14;107330;1291;22741;-67
2022/10/29 06:19:52;;;;;;;41.50;18.10;;;;;;;15.22;55.39;101621.36;107350;1288;21958;-67
2022/10/29 06:22:18;;;;;;;38.50;17.20;;;;;;;15.34;55.28;101624.41;106993;1292;21961;-67
2022/10/29 06:24:44;;;;;;;47.30;20.50;;;;;;;15.45;55.27;101622.86;107335;1290;21951;-67
2022/10/29 06:27:09;;;;;;;33.90;18.90;;;;;;;15.54;55.10;101618.85;106966;1290;585951;-68
2022/10/29 06:29:36;;;;;;;37.00;17.40;;;;;;;15.66;55.08;101618.34;107253;1292;21951;-66
2022/10/29 06:32:03;;;;;;;30.80;15.40;;;;;;;15.74;55.29;101618.92;107299;1291;21957;-68
2022/10/29 06:34:30;;;;;;;57.50;16.00;;;;;;;15.84;55.18;101618.99;107273;1292;21965;-66
2022/10/29 06:36:59;;;;;;;26.10;13.20;;;;;;;15.98;55.11;101616.50;107220;1291;21938;-67
2022/10/29 06:39:25;;;;;;;31.00;16.50;;;;;;;16.13;55.27;101618.23;107355;1291;21951;-67
2022/10/29 06:41:53;;;;;;;18.80;12.50;;;;;;;16.26;55.14;101622.09;107328;1291;21968;-66
2022/10/29 06:44:19;;;;;;;27.20;14.10;;;;;;;16.39;55.09;101620.28;107212;1291;21957;-68
2022/10/29 06:46:45;;;;;;;32.70;16.30;;;;;;;16.49;55.08;101615.50;107009;1292;21950;-68
2022/10/29 06:49:11;;;;;;;26.80;13.30;;;;;;;16.62;55.05;101611.73;106999;1291;22185;-68
2022/10/29 06:51:38;;;;;;;18.80;11.20;;;;;;;16.76;55.01;101613.08;107112;1293;21968;-68
2022/10/29 06:54:05;;;;;;;31.00;14.70;;;;;;;16.91;54.88;101610.50;107397;1291;23929;-69
2022/10/29 06:56:33;;;;;;;40.80;15.50;;;;;;;17.11;54.57;101605.70;107548;1290;23131;-68
2022/10/29 06:59:00;;;;;;;36.80;15.40;;;;;;;17.27;54.36;101601.29;107326;1291;21956;-67
2022/10/29 07:01:27;;;;;;;35.80;15.30;;;;;;;17.41;54.12;101601.37;107235;1291;21959;-68
2022/10/29 07:03:55;;;;;;;23.30;11.00;;;;;;;17.54;54.05;101603.92;107283;1292;21999;-68
2022/10/29 07:06:22;;;;;;;32.40;13.50;;;;;;;17.69;53.94;101602.70;107134;1293;23681;-68
2022/10/29 07:08:48;;;;;;;33.10;14.90;;;;;;;17.84;53.72;101597.41;107279;1290;21962;-69
2022/10/29 07:11:16;;;;;;;31.90;11.60;;;;;;;18.01;53.54;101597.90;107281;1288;21951;-68
2022/10/29 07:13:42;;;;;;;25.20;11.20;;;;;;;18.21;53.41;101598.67;107256;1291;21958;-69
2022/10/29 07:16:08;;;;;;;26.60;13.00;;;;;;;18.43;53.11;101594.77;107107;1293;23632;-68
2022/10/29 07:18:38;;;;;;;40.00;20.80;;;;;;;18.66;52.84;101594.52;107337;1292;21947;-67
2022/10/29 07:21:05;;;;;;;67.60;29.80;;;;;;;18.85;52.42;101594.73;107318;1291;21956;-67
2022/10/29 07:23:30;;;;;;;86.60;36.50;;;;;;;19.00;51.91;101595.21;107288;1292;23629;-67
2022/10/29 07:25:57;;;;;;;127.70;54.20;;;;;;;19.13;50.88;101592.90;107501;1283;21976;-67
2022/10/29 07:28:24;;;;;;;66.60;30.60;;;;;;;19.25;50.50;101589.53;107337;1291;21960;-67
2022/10/29 07:30:50;;;;;;;51.20;26.60;;;;;;;19.36;50.08;101589.92;107260;1290;21949;-66
2022/10/29 07:33:17;;;;;;;27.30;13.70;;;;;;;19.50;49.88;101591.45;107383;1291;21991;-66
2022/10/29 07:35:45;;;;;;;17.70;11.30;;;;;;;19.66;50.05;101594.71;107302;1291;21959;-66
2022/10/29 07:38:11;;;;;;;34.30;15.60;;;;;;;19.77;49.35;101595.44;108683;1291;21992;-67
2022/10/29 07:40:39;;;;;;;20.40;9.20;;;;;;;19.91;49.64;101590.41;107239;1293;21974;-66
2022/10/29 07:43:05;;;;;;;15.90;9.20;;;;;;;20.04;49.45;101592.11;107378;1290;21953;-66
2022/10/29 07:45:31;;;;;;;13.50;7.70;;;;;;;20.17;48.88;101591.88;107130;1293;21956;-68
2022/10/29 07:48:02;;;;;;;14.20;7.70;;;;;;;20.26;48.62;101590.86;107374;1291;22439;-66
2022/10/29 07:50:28;;;;;;;34.00;13.10;;;;;;;20.37;47.36;101593.86;107384;1291;23722;-67
2022/10/29 07:52:54;;;;;;;39.40;13.00;;;;;;;20.47;47.32;101593.73;106969;1293;23708;-67
2022/10/29 07:55:20;;;;;;;30.00;12.30;;;;;;;20.51;46.58;101591.42;107313;1293;22020;-69
2022/10/29 07:57:46;;;;;;;24.40;11.00;;;;;;;20.63;47.39;101591.74;107197;1293;21960;-65
2022/10/29 08:00:13;;;;;;;25.50;13.10;;;;;;;20.78;46.42;101586.23;107301;1291;21988;-66
2022/10/29 08:02:41;;;;;;;33.80;20.50;;;;;;;20.86;45.81;101588.08;107266;1291;22916;-65
2022/10/29 08:05:09;;;;;;;35.20;21.40;;;;;;;20.90;45.42;101585.45;107390;1291;22001;-65
2022/10/29 08:07:35;;;;;;;44.40;22.70;;;;;;;20.97;45.97;101577.14;107373;1291;21949;-65
2022/10/29 08:10:01;;;;;;;27.80;15.30;;;;;;;21.08;46.48;101581.77;107196;1286;21952;-65
2022/10/29 08:12:27;;;;;;;41.50;17.80;;;;;;;21.21;46.14;101579.67;107266;1291;22009;-65
2022/10/29 08:14:57;;;;;;;40.70;19.50;;;;;;;21.23;45.03;101574.41;107239;1291;21557;-65
2022/10/29 08:17:23;;;;;;;22.00;10.20;;;;;;;21.29;45.27;101574.39;107337;1292;21962;-65
2022/10/29 08:19:51;;;;;;;23.70;10.40;;;;;;;21.44;44.59;101574.86;107216;1293;22013;-64
2022/10/29 08:22:17;;;;;;;23.80;9.50;;;;;;;21.57;44.54;101571.90;107179;1293;21945;-65
2022/10/29 08:24:43;;;;;;;25.70;10.20;;;;;;;21.64;44.29;101567.85;107096;1293;21941;-65
2022/10/29 08:27:10;;;;;;;14.00;6.20;;;;;;;21.64;44.65;101565.55;107129;1293;21945;-65
2022/10/29 08:29:36;;;;;;;8.90;5.80;;;;;;;21.62;44.83;101563.85;107222;1293;21960;-65
2022/10/29 08:32:03;;;;;;;15.40;6.80;;;;;;;21.58;44.59;101562.18;107227;1293;21995;-65
2022/10/29 08:34:30;;;;;;;26.30;10.90;;;;;;;21.61;43.85;101562.27;107246;1288;22117;-64
2022/10/29 08:36:56;;;;;;;25.40;10.40;;;;;;;21.64;43.04;101558.38;107367;1284;22078;-65
2022/10/29 08:39:22;;;;;;;20.90;9.60;;;;;;;21.75;44.33;101554.24;107314;1287;22022;-65
2022/10/29 08:42:25;;;;;;;25.70;11.10;;;;;;;21.78;43.11;101549.48;107254;1292;21954;-66
2022/10/29 08:45:17;;;;;;;27.70;12.30;;;;;;;21.93;43.82;101549.02;107254;1291;21963;-65
2022/10/29 08:48:03;;;;;;;33.90;17.30;;;;;;;21.96;43.10;101543.17;108777;1291;22124;-65
2022/10/29 08:50:31;;;;;;;23.40;12.70;;;;;;;22.06;44.13;101543.10;107268;1289;21963;-65
2022/10/29 08:52:59;;;;;;;14.10;8.70;;;;;;;22.19;43.56;101534.89;107326;1291;24328;-65
2022/10/29 08:55:29;;;;;;;42.30;15.70;;;;;;;22.23;42.12;101533.63;107281;1292;21964;-67
2022/10/29 08:57:59;;;;;;;33.90;13.70;;;;;;;22.31;43.03;101532.77;107121;1293;22927;-66
2022/10/29 09:00:31;;;;;;;30.80;13.50;;;;;;;22.30;42.95;101530.67;107129;1289;21958;-66
2022/10/29 09:02:58;;;;;;;25.40;9.80;;;;;;;22.25;42.49;101525.34;107219;1288;21950;-65
2022/10/29 09:05:29;;;;;;;12.30;6.90;;;;;;;22.32;42.59;101522.91;107196;1293;21957;-66
2022/10/29 09:08:17;;;;;;;14.20;7.40;;;;;;;22.36;42.56;101525.95;108613;1293;24312;-65
2022/10/29 09:11:06;;;;;;;23.40;9.30;;;;;;;22.39;41.97;101527.61;107265;1293;21939;-65
2022/10/29 09:13:47;;;;;;;47.50;20.40;;;;;;;22.39;42.27;101531.16;107194;1293;23643;-66
2022/10/29 09:16:20;;;;;;;47.50;20.00;;;;;;;22.49;42.90;101526.30;107209;1293;21969;-65
2022/10/29 09:19:16;;;;;;;14.50;7.10;;;;;;;22.49;41.61;101522.90;107255;1293;22040;-66
2022/10/29 09:21:59;;;;;;;63.20;24.10;;;;;;;22.57;41.81;101514.13;107122;1288;21961;-66
2022/10/29 09:24:39;;;;;;;31.70;13.20;;;;;;;22.68;41.98;101517.41;107213;1293;21999;-66
2022/10/29 09:27:34;;;;;;;49.40;18.10;;;;;;;22.70;41.37;101515.15;107069;1293;24317;-67
2022/10/29 09:30:14;;;;;;;24.40;11.60;;;;;;;22.81;41.56;101511.27;107238;1293;21964;-66
2022/10/29 09:33:01;;;;;;;29.20;13.10;;;;;;;22.96;41.03;101508.06;107284;1293;21947;-66
2022/10/29 09:35:53;;;;;;;19.90;8.10;;;;;;;23.19;40.69;101498.25;107153;1293;21959;-66
2022/10/29 09:38:21;;;;;;;24.30;11.00;;;;;;;23.28;40.64;101493.55;107175;1293;21947;-66
2022/10/29 09:40:46;;;;;;;19.00;8.80;;;;;;;23.29;40.31;101490.80;107259;1288;21963;-66
2022/10/29 09:43:33;;;;;;;21.90;9.40;;;;;;;23.34;40.29;101488.95;107198;1293;21961;-66
2022/10/29 09:46:20;;;;;;;30.50;13.60;;;;;;;23.41;40.56;101489.16;107373;1293;21960;-66
2022/10/29 09:49:17;;;;;;;30.40;11.80;;;;;;;23.44;40.09;101481.51;107274;1293;21957;-65
2022/10/29 09:51:53;;;;;;;32.30;13.60;;;;;;;23.45;39.82;101482.35;107264;1291;21959;-66
2022/10/29 09:54:19;;;;;;;24.60;11.40;;;;;;;23.46;39.87;101485.67;107245;1291;21960;-65
2022/10/29 09:56:46;;;;;;;24.50;10.60;;;;;;;23.49;39.96;101486.81;107249;1285;21956;-66
2022/10/29 09:59:15;;;;;;;13.80;6.40;;;;;;;23.50;39.62;101483.56;107237;1291;23756;-65
2022/10/29 10:01:41;;;;;;;30.80;13.10;;;;;;;23.51;39.14;101483.30;107321;1291;21960;-65
2022/10/29 10:04:12;;;;;;;36.80;14.50;;;;;;;23.50;39.35;101478.89;107266;1291;21946;-65
2022/10/29 10:07:02;;;;;;;11.90;6.30;;;;;;;23.44;38.16;101469.84;107133;1291;21950;-66
2022/10/29 10:09:28;;;;;;;32.30;13.50;;;;;;;23.48;38.61;101468.40;107295;1291;21950;-66
2022/10/29 10:11:57;;;;;;;42.00;16.30;;;;;;;23.56;39.13;101459.22;107337;1291;22017;-66
2022/10/29 10:14:25;;;;;;;28.30;12.60;;;;;;;23.63;39.01;101458.34;106814;1291;1002318;-65
2022/10/29 10:16:59;;;;;;;37.80;14.80;;;;;;;23.66;38.64;101449.21;107105;1291;21994;-66
2022/10/29 10:19:32;;;;;;;28.50;13.80;;;;;;;23.73;39.11;101452.98;107350;1291;21959;-65
2022/10/29 10:22:00;;;;;;;24.00;11.50;;;;;;;23.71;39.19;101450.59;107357;1291;21967;-66
2022/10/29 10:24:36;;;;;;;17.70;10.30;;;;;;;23.72;38.74;101445.38;107409;1291;21949;-66
2022/10/29 10:27:35;;;;;;;13.90;8.70;;;;;;;23.72;38.56;101441.95;107319;1291;21962;-65
2022/10/29 10:30:03;;;;;;;13.40;7.90;;;;;;;23.80;38.34;101442.28;107031;1291;21998;-66
2022/10/29 10:32:30;;;;;;;12.90;6.60;;;;;;;23.90;38.31;101436.00;107322;1291;21943;-66
2022/10/29 10:34:57;;;;;;;19.70;9.80;;;;;;;24.00;38.32;101436.23;107336;1291;21953;-66
2022/10/29 10:37:22;;;;;;;15.10;8.70;;;;;;;24.07;37.50;101429.42;107337;1291;21952;-66
2022/10/29 10:39:54;;;;;;;8.10;5.30;;;;;;;24.12;37.09;101429.36;107215;1291;21954;-66
2022/10/29 10:42:33;;;;;;;16.00;9.30;;;;;;;24.13;37.54;101425.90;107293;1291;21962;-67
2022/10/29 10:45:05;;;;;;;7.40;5.30;;;;;;;24.16;37.97;101416.25;107382;1291;21949;-66
2022/10/29 10:47:33;;;;;;;14.90;7.90;;;;;;;24.15;37.67;101411.11;107162;1291;21955;-66
2022/10/29 10:50:19;;;;;;;11.40;7.30;;;;;;;24.16;37.42;101406.00;107341;1291;21949;-65
2022/10/29 10:52:45;;;;;;;10.60;7.00;;;;;;;24.18;37.59;101401.09;107292;1291;21945;-65
2022/10/29 10:55:36;;;;;;;12.50;7.40;;;;;;;24.15;37.44;101399.95;107108;1291;21950;-65
2022/10/29 10:58:24;;;;;;;7.50;5.30;;;;;;;24.14;37.29;101396.26;107338;1291;21943;-65
2022/10/29 11:00:55;;;;;;;10.70;6.10;;;;;;;24.14;37.16;101395.17;107283;1291;21946;-66
2022/10/29 11:03:41;;;;;;;11.60;7.30;;;;;;;24.19;37.58;101391.72;107285;1291;21955;-66
2022/10/29 11:06:12;;;;;;;7.10;4.70;;;;;;;24.26;37.63;101388.27;107296;1291;21959;-65
2022/10/29 11:09:02;;;;;;;7.70;5.00;;;;;;;24.22;37.39;101385.80;108195;1277;23091;-66
2022/10/29 11:11:43;;;;;;;9.20;4.70;;;;;;;24.26;36.80;101380.56;107279;1293;21960;-65
2022/10/29 11:14:14;;;;;;;11.70;7.80;;;;;;;24.35;37.33;101384.05;107278;1291;21952;-66
2022/10/29 11:17:03;;;;;;;15.10;8.60;;;;;;;24.37;37.27;101384.63;107170;1291;21973;-66
2022/10/29 11:19:41;;;;;;;18.60;9.30;;;;;;;24.37;37.09;101382.13;107270;1292;21953;-66